Terminal Aerodrome Forecast
Issued by NWS

Home | Current Version | Previous Version | Text Only | Print | Product List | Glossary On
Versions: 1 2 3 4 5 6 7 8 9 10 11 12 13 14 15 16
000
FTUS43 KICT 241700
TAFSLN
TAF
KSLN 241725Z 2418/2518 20012KT P6SM SCT250
     FM250000 19005KT P6SM FEW250
     FM251000 VRB03KT 4SM BR FEW250
     FM251500 07008KT P6SM FEW250=

USA.gov is the U.S. government's official web portal to all federal, state and local government web resources and services.